createdAt,value
2023-05-07T00:00:36.308Z,100339.31
2023-05-07T00:03:02.984Z,100357.19
2023-05-07T00:05:30.177Z,100357.16
2023-05-07T00:07:58.439Z,100359.69
2023-05-07T00:10:26.883Z,100356.97
2023-05-07T00:12:53.604Z,100349.03
2023-05-07T00:15:20.759Z,100353.06
2023-05-07T00:17:47.411Z,100354.41
2023-05-07T00:20:14.216Z,100356.41
2023-05-07T00:22:41.051Z,100352.31
2023-05-07T00:25:08.428Z,100347.63
2023-05-07T00:27:35.020Z,100356.25
2023-05-07T00:30:01.628Z,100356.78
2023-05-07T00:32:28.248Z,100360.03
2023-05-07T00:34:55.027Z,100360.88
2023-05-07T00:37:21.773Z,100353.38
2023-05-07T00:39:48.368Z,100352.41
2023-05-07T00:42:16.076Z,100353.22
2023-05-07T00:44:42.910Z,100353.72
2023-05-07T00:47:09.664Z,100349.44
2023-05-07T00:49:39.589Z,100351.56
2023-05-07T00:52:08.524Z,100353.06
2023-05-07T00:54:35.796Z,100355.25
2023-05-07T00:57:04.622Z,100354.84
2023-05-07T00:59:33.154Z,100365.84
2023-05-07T01:02:00.508Z,100365.97
2023-05-07T01:04:27.824Z,100358.88
2023-05-07T01:06:59.899Z,100371.84
2023-05-07T01:09:28.436Z,100363.03
2023-05-07T01:11:58.503Z,100367.06
2023-05-07T01:14:26.659Z,100359.09
2023-05-07T01:16:54.331Z,100360.25
2023-05-07T01:19:21.226Z,100363.56
2023-05-07T01:21:49.608Z,100362.75
2023-05-07T01:24:16.684Z,100365.75
2023-05-07T01:26:45.411Z,100369.22
2023-05-07T01:29:12.066Z,100370.41
2023-05-07T01:31:39.992Z,100364.28
2023-05-07T01:34:09.472Z,100371.00
2023-05-07T01:36:39.767Z,100365.59
2023-05-07T01:39:07.561Z,100372.19
2023-05-07T01:41:34.237Z,100376.88
2023-05-07T01:44:02.351Z,100380.44
2023-05-07T01:46:29.836Z,100372.47
2023-05-07T01:48:56.774Z,100376.66
2023-05-07T01:51:23.785Z,100378.56
2023-05-07T01:53:51.890Z,100369.06
2023-05-07T01:56:19.139Z,100373.91
2023-05-07T01:58:49.193Z,100369.81
2023-05-07T02:01:15.843Z,100362.16
2023-05-07T02:03:42.680Z,100354.13
2023-05-07T02:06:09.662Z,100359.81
2023-05-07T02:08:36.543Z,100358.88
2023-05-07T02:11:03.196Z,100356.19
2023-05-07T02:13:34.474Z,100356.03
2023-05-07T02:16:01.125Z,100360.75
2023-05-07T02:18:27.968Z,100359.34
2023-05-07T02:20:54.539Z,100352.25
2023-05-07T02:23:21.240Z,100348.13
2023-05-07T02:25:47.797Z,100349.03
2023-05-07T02:28:14.429Z,100349.94
2023-05-07T02:30:41.450Z,100347.50
2023-05-07T02:33:09.568Z,100342.97
2023-05-07T02:35:36.356Z,100345.97
2023-05-07T02:38:03.412Z,100340.00
2023-05-07T02:40:30.061Z,100342.88
2023-05-07T02:42:56.987Z,100343.13
2023-05-07T02:45:23.551Z,100348.44
2023-05-07T02:47:50.266Z,100339.91
2023-05-07T02:50:17.134Z,100342.91
2023-05-07T02:52:43.780Z,100350.88
2023-05-07T02:55:10.435Z,100355.16
2023-05-07T02:57:37.022Z,100352.47
2023-05-07T03:00:19.962Z,100351.16
2023-05-07T03:02:46.817Z,100359.13
2023-05-07T03:05:13.721Z,100345.34
2023-05-07T03:07:40.381Z,100350.03
2023-05-07T03:10:07.388Z,100354.41
2023-05-07T03:12:33.960Z,100355.97
2023-05-07T03:15:00.580Z,100355.00
2023-05-07T03:17:27.175Z,100354.13
2023-05-07T03:19:53.864Z,100356.97
2023-05-07T03:22:20.503Z,100353.28
2023-05-07T03:24:47.112Z,100351.31
2023-05-07T03:27:13.659Z,100349.44
2023-05-07T03:29:40.542Z,100342.34
2023-05-07T03:32:07.534Z,100351.44
2023-05-07T03:34:34.145Z,100353.44
2023-05-07T03:37:01.402Z,100343.94
2023-05-07T03:39:28.100Z,100349.31
2023-05-07T03:41:54.687Z,100353.72
2023-05-07T03:44:21.339Z,100353.16
2023-05-07T03:46:48.081Z,100357.00
2023-05-07T03:49:14.764Z,100357.00
2023-05-07T03:51:41.376Z,100362.41
2023-05-07T03:54:08.378Z,100363.41
2023-05-07T03:56:34.929Z,100357.28
2023-05-07T03:59:02.611Z,100358.28
2023-05-07T04:01:29.247Z,100362.97
2023-05-07T04:03:56.835Z,100367.69
2023-05-07T04:06:23.688Z,100366.81
2023-05-07T04:08:50.283Z,100369.78
2023-05-07T04:11:16.883Z,100367.81
2023-05-07T04:13:43.494Z,100370.50
2023-05-07T04:16:10.071Z,100373.19
2023-05-07T04:18:36.738Z,100372.06
2023-05-07T04:21:03.342Z,100369.47
2023-05-07T04:23:30.055Z,100374.16
2023-05-07T04:25:57.088Z,100382.53
2023-05-07T04:28:24.138Z,100374.13
2023-05-07T04:30:50.765Z,100388.72
2023-05-07T04:33:18.286Z,100390.59
2023-05-07T04:35:44.902Z,100389.53
2023-05-07T04:38:12.057Z,100391.66
2023-05-07T04:40:38.702Z,100392.38
2023-05-07T04:43:05.578Z,100392.78
2023-05-07T04:45:32.307Z,100397.28
2023-05-07T04:47:58.929Z,100389.31
2023-05-07T04:50:26.119Z,100395.28
2023-05-07T04:52:52.672Z,100395.38
2023-05-07T04:55:19.374Z,100393.50
2023-05-07T04:57:46.360Z,100392.56
2023-05-07T05:00:15.505Z,100385.41
2023-05-07T05:02:42.312Z,100395.31
2023-05-07T05:05:09.593Z,100382.06
2023-05-07T05:07:36.194Z,100392.94
2023-05-07T05:10:04.254Z,100384.22
2023-05-07T05:12:31.563Z,100392.38
2023-05-07T05:14:58.278Z,100392.34
2023-05-07T05:17:25.078Z,100392.94
2023-05-07T05:19:51.938Z,100391.03
2023-05-07T05:22:18.565Z,100385.38
2023-05-07T05:24:45.129Z,100392.38
2023-05-07T05:27:11.735Z,100387.56
2023-05-07T05:29:38.324Z,100390.69
2023-05-07T05:32:05.201Z,100385.16
2023-05-07T05:34:31.808Z,100387.75
2023-05-07T05:37:00.196Z,100389.16
2023-05-07T05:39:26.885Z,100392.28
2023-05-07T05:41:53.472Z,100385.06
2023-05-07T05:44:20.008Z,100380.31
2023-05-07T05:46:46.696Z,100377.50
2023-05-07T05:49:13.297Z,100383.97
2023-05-07T05:51:39.904Z,100386.72
2023-05-07T05:54:06.494Z,100384.19
2023-05-07T05:56:33.233Z,100382.69
2023-05-07T05:59:00.038Z,100376.44
2023-05-07T06:01:26.828Z,100372.22
2023-05-07T06:03:53.510Z,100369.31
2023-05-07T06:06:20.208Z,100367.78
2023-05-07T06:08:46.923Z,100376.44
2023-05-07T06:11:13.509Z,100378.63
2023-05-07T06:13:40.202Z,100379.25
2023-05-07T06:16:07.773Z,100384.19
2023-05-07T06:18:34.493Z,100389.09
2023-05-07T06:21:01.056Z,100385.00
2023-05-07T06:23:27.634Z,100382.56
2023-05-07T06:25:54.222Z,100383.69
2023-05-07T06:28:21.104Z,100385.66
2023-05-07T06:30:48.285Z,100384.34
2023-05-07T06:33:14.872Z,100380.91
2023-05-07T06:35:41.469Z,100382.84
2023-05-07T06:38:08.048Z,100384.78
2023-05-07T06:40:34.627Z,100384.84
2023-05-07T06:43:01.276Z,100386.25
2023-05-07T06:45:27.929Z,100384.63
2023-05-07T06:47:54.610Z,100375.81
2023-05-07T06:50:21.311Z,100384.00
2023-05-07T06:52:47.866Z,100381.38
2023-05-07T06:55:14.637Z,100385.72
2023-05-07T06:57:41.259Z,100389.03
2023-05-07T07:00:10.317Z,100386.47
2023-05-07T07:02:37.838Z,100388.53
2023-05-07T07:05:05.092Z,100385.03
2023-05-07T07:07:31.876Z,100388.06
2023-05-07T07:09:58.478Z,100390.00
2023-05-07T07:12:26.994Z,100396.75
2023-05-07T07:14:55.078Z,100401.84
2023-05-07T07:17:22.088Z,100408.13
2023-05-07T07:19:48.701Z,100407.56
2023-05-07T07:22:15.334Z,100409.72
2023-05-07T07:24:42.022Z,100415.25
2023-05-07T07:27:08.727Z,100424.72
2023-05-07T07:29:35.431Z,100421.75
2023-05-07T07:32:02.018Z,100425.56
2023-05-07T07:34:28.673Z,100423.19
2023-05-07T07:36:55.233Z,100421.81
2023-05-07T07:39:21.834Z,100426.13
2023-05-07T07:41:48.383Z,100428.25
2023-05-07T07:44:16.324Z,100427.91
2023-05-07T07:46:43.396Z,100429.94
2023-05-07T07:49:10.078Z,100428.09
2023-05-07T07:51:36.692Z,100427.63
2023-05-07T07:54:03.893Z,100426.75
2023-05-07T07:56:30.586Z,100427.63
2023-05-07T07:58:57.133Z,100426.56
2023-05-07T08:01:23.762Z,100427.31
2023-05-07T08:03:50.804Z,100432.09
2023-05-07T08:06:17.506Z,100439.72
2023-05-07T08:08:44.300Z,100432.34
2023-05-07T08:11:11.181Z,100445.91
2023-05-07T08:13:39.415Z,100440.91
2023-05-07T08:16:06.419Z,100435.25
2023-05-07T08:18:33.028Z,100428.47
2023-05-07T08:20:59.703Z,100429.72
2023-05-07T08:23:26.283Z,100423.69
2023-05-07T08:25:53.210Z,100427.78
2023-05-07T08:28:20.787Z,100414.81
2023-05-07T08:30:47.782Z,100420.28
2023-05-07T08:33:14.698Z,100415.47
2023-05-07T08:35:41.364Z,100414.34
2023-05-07T08:38:07.975Z,100409.66
2023-05-07T08:40:38.967Z,100423.06
2023-05-07T08:43:07.305Z,100419.03
2023-05-07T08:45:35.133Z,100417.84
2023-05-07T08:48:06.491Z,100430.06
2023-05-07T08:50:36.353Z,100424.47
2023-05-07T08:53:04.839Z,100424.06
2023-05-07T08:55:31.562Z,100426.66
2023-05-07T08:57:58.163Z,100435.13
2023-05-07T09:00:24.809Z,100421.53
2023-05-07T09:02:51.678Z,100423.94
2023-05-07T09:05:18.386Z,100423.44
2023-05-07T09:07:45.506Z,100425.81
2023-05-07T09:10:12.579Z,100422.16
2023-05-07T09:12:40.244Z,100427.50
2023-05-07T09:15:07.737Z,100419.59
2023-05-07T09:17:34.332Z,100423.22
2023-05-07T09:20:10.106Z,100422.91
2023-05-07T09:22:38.894Z,100414.31
2023-05-07T09:25:10.506Z,100423.97
2023-05-07T09:27:37.712Z,100421.50
2023-05-07T09:30:07.228Z,100417.97
2023-05-07T09:32:40.859Z,100431.03
2023-05-07T09:35:22.482Z,100423.22
2023-05-07T09:37:49.120Z,100424.94
2023-05-07T09:40:26.803Z,100430.66
2023-05-07T09:42:53.676Z,100417.38
2023-05-07T09:45:26.118Z,100419.06
2023-05-07T09:47:56.398Z,100419.47
2023-05-07T09:50:29.013Z,100419.22
2023-05-07T09:52:57.194Z,100416.06
2023-05-07T09:55:24.396Z,100418.38
2023-05-07T09:57:52.287Z,100414.84
2023-05-07T10:00:23.300Z,100426.66
2023-05-07T10:02:53.431Z,100420.09
2023-05-07T10:05:23.579Z,100425.13
2023-05-07T10:07:51.400Z,100427.44
2023-05-07T10:10:18.687Z,100432.06
2023-05-07T10:12:46.228Z,100437.97
2023-05-07T10:15:13.737Z,100427.19
2023-05-07T10:17:42.604Z,100428.88
2023-05-07T10:20:09.921Z,100429.06
2023-05-07T10:22:47.081Z,100432.03
2023-05-07T10:25:21.970Z,100430.31
2023-05-07T10:27:51.811Z,100426.69
2023-05-07T10:30:27.583Z,100422.69
2023-05-07T10:32:59.147Z,100439.09
2023-05-07T10:35:30.550Z,100434.69
2023-05-07T10:37:57.292Z,100430.41
2023-05-07T10:40:24.078Z,100425.66
2023-05-07T10:43:01.430Z,100434.97
2023-05-07T10:45:29.804Z,100426.13
2023-05-07T10:48:28.611Z,100421.53
2023-05-07T10:51:20.275Z,100425.34
2023-05-07T10:53:46.861Z,100423.25
2023-05-07T10:56:19.633Z,100411.22
2023-05-07T10:58:46.345Z,100408.97
2023-05-07T11:01:14.271Z,100419.25
2023-05-07T11:04:16.547Z,100410.38
2023-05-07T11:06:45.884Z,100414.19
2023-05-07T11:09:12.487Z,100408.00
2023-05-07T11:11:49.044Z,100409.47
2023-05-07T11:14:35.845Z,100405.84
2023-05-07T11:17:04.939Z,100405.94
2023-05-07T11:19:51.262Z,100404.34
2023-05-07T11:22:32.943Z,100401.97
2023-05-07T11:25:07.341Z,100404.19
2023-05-07T11:27:34.839Z,100397.22
2023-05-07T11:30:02.935Z,100409.97
2023-05-07T11:32:32.239Z,100408.59
2023-05-07T11:35:01.224Z,100408.28
2023-05-07T11:37:30.605Z,100398.19
2023-05-07T11:40:23.709Z,100398.72
2023-05-07T11:45:28.052Z,100388.34
2023-05-07T11:47:54.719Z,100395.94
2023-05-07T11:50:21.350Z,100400.84
2023-05-07T11:52:54.165Z,100387.22
2023-05-07T11:55:20.971Z,100388.09
2023-05-07T11:57:47.853Z,100386.13
2023-05-07T12:00:17.498Z,100383.00
2023-05-07T12:02:46.751Z,100380.50
2023-05-07T12:05:13.670Z,100377.75
2023-05-07T12:07:40.747Z,100375.72
2023-05-07T12:10:08.014Z,100377.38
2023-05-07T12:12:46.882Z,100373.31
2023-05-07T12:15:23.469Z,100373.66
2023-05-07T12:17:50.548Z,100371.00
2023-05-07T12:20:18.189Z,100366.50
2023-05-07T12:22:44.962Z,100371.63
2023-05-07T12:25:11.778Z,100363.13
2023-05-07T12:27:42.174Z,100365.88
2023-05-07T12:30:11.575Z,100366.03
2023-05-07T12:32:38.308Z,100362.97
2023-05-07T12:35:07.502Z,100357.56
2023-05-07T12:37:34.125Z,100362.16
2023-05-07T12:40:11.279Z,100358.06
2023-05-07T12:42:39.633Z,100362.34
2023-05-07T12:45:14.346Z,100356.91
2023-05-07T12:47:48.203Z,100357.00
2023-05-07T12:50:16.395Z,100357.63
2023-05-07T12:52:45.267Z,100363.63
2023-05-07T12:55:15.518Z,100373.50
2023-05-07T12:57:49.659Z,100356.34
2023-05-07T13:00:16.735Z,100358.22
2023-05-07T13:02:47.683Z,100365.25
2023-05-07T13:05:14.687Z,100367.75
2023-05-07T13:07:42.092Z,100355.69
2023-05-07T13:10:09.428Z,100349.25
2023-05-07T13:12:36.159Z,100354.34
2023-05-07T13:15:02.805Z,100352.31
2023-05-07T13:17:29.517Z,100344.81
2023-05-07T13:19:56.181Z,100347.91
2023-05-07T13:22:22.749Z,100348.16
2023-05-07T13:24:49.435Z,100344.53
2023-05-07T13:27:16.518Z,100341.25
2023-05-07T13:29:43.109Z,100342.53
2023-05-07T13:32:09.772Z,100336.44
2023-05-07T13:34:37.197Z,100342.47
2023-05-07T13:37:04.401Z,100341.63
2023-05-07T13:39:30.986Z,100335.59
2023-05-07T13:41:57.569Z,100337.78
2023-05-07T13:44:24.171Z,100333.38
2023-05-07T13:46:51.207Z,100338.53
2023-05-07T13:49:17.928Z,100330.06
2023-05-07T13:51:44.574Z,100323.22
2023-05-07T13:54:11.462Z,100324.69
2023-05-07T13:56:38.265Z,100331.56
2023-05-07T13:59:04.851Z,100329.81
2023-05-07T14:01:32.156Z,100323.72
2023-05-07T14:04:00.553Z,100317.34
2023-05-07T14:06:27.474Z,100321.25
2023-05-07T14:08:54.124Z,100319.22
2023-05-07T14:11:21.753Z,100322.00
2023-05-07T14:13:48.385Z,100324.28
2023-05-07T14:16:14.982Z,100331.03
2023-05-07T14:18:41.624Z,100323.16
2023-05-07T14:21:11.010Z,100320.91
2023-05-07T14:23:37.703Z,100313.41
2023-05-07T14:26:04.341Z,100332.00
2023-05-07T14:28:30.934Z,100327.19
2023-05-07T14:30:57.781Z,100331.53
2023-05-07T14:33:24.436Z,100333.81
2023-05-07T14:35:51.211Z,100336.09
2023-05-07T14:38:17.844Z,100330.94
2023-05-07T14:40:44.444Z,100337.44
2023-05-07T14:43:11.005Z,100331.09
2023-05-07T14:45:37.576Z,100333.50
2023-05-07T14:48:04.672Z,100338.22
2023-05-07T14:50:31.240Z,100337.94
2023-05-07T14:52:57.853Z,100337.59
2023-05-07T14:55:24.457Z,100340.69
2023-05-07T14:57:51.112Z,100347.69
2023-05-07T15:00:17.975Z,100344.59
2023-05-07T15:02:44.637Z,100338.91
2023-05-07T15:05:11.740Z,100334.19
2023-05-07T15:07:38.522Z,100343.53
2023-05-07T15:10:05.967Z,100346.13
2023-05-07T15:12:32.503Z,100347.25
2023-05-07T15:14:59.132Z,100343.59
2023-05-07T15:17:25.752Z,100346.91
2023-05-07T15:19:54.388Z,100345.97
2023-05-07T15:22:22.743Z,100344.16
2023-05-07T15:24:49.456Z,100343.66
2023-05-07T15:27:17.699Z,100347.53
2023-05-07T15:29:44.369Z,100352.53
2023-05-07T15:32:11.404Z,100350.88
2023-05-07T15:34:38.178Z,100347.06
2023-05-07T15:37:04.763Z,100348.09
2023-05-07T15:39:32.011Z,100350.03
2023-05-07T15:41:58.611Z,100348.34
2023-05-07T15:44:28.458Z,100350.22
2023-05-07T15:46:55.304Z,100352.44
2023-05-07T15:49:23.103Z,100349.72
2023-05-07T15:51:51.714Z,100343.50
2023-05-07T15:54:21.028Z,100345.84
2023-05-07T15:56:48.254Z,100346.09
2023-05-07T15:59:16.958Z,100351.41
2023-05-07T16:01:45.741Z,100360.84
2023-05-07T16:04:12.532Z,100360.31
2023-05-07T16:06:39.323Z,100364.31
2023-05-07T16:09:05.975Z,100363.72
2023-05-07T16:11:34.026Z,100357.84
2023-05-07T16:14:03.279Z,100364.41
2023-05-07T16:16:33.684Z,100361.44
2023-05-07T16:19:00.766Z,100368.91
2023-05-07T16:21:27.514Z,100354.34
2023-05-07T16:23:54.084Z,100357.75
2023-05-07T16:26:20.660Z,100362.28
2023-05-07T16:28:47.298Z,100357.31
2023-05-07T16:31:13.975Z,100351.28
2023-05-07T16:33:40.919Z,100355.56
2023-05-07T16:36:07.820Z,100353.84
2023-05-07T16:38:34.767Z,100359.16
2023-05-07T16:41:01.784Z,100361.13
2023-05-07T16:43:28.441Z,100362.75
2023-05-07T16:45:55.197Z,100358.69
2023-05-07T16:48:21.936Z,100359.69
2023-05-07T16:50:48.618Z,100350.63
2023-05-07T16:53:15.477Z,100349.25
2023-05-07T16:55:42.258Z,100352.03
2023-05-07T16:58:11.285Z,100359.38
2023-05-07T17:00:49.834Z,100363.34
2023-05-07T17:03:17.120Z,100359.25
2023-05-07T17:05:43.854Z,100367.91
2023-05-07T17:08:10.446Z,100364.22
2023-05-07T17:10:37.044Z,100377.16
2023-05-07T17:13:03.852Z,100372.44
2023-05-07T17:15:30.685Z,100378.25
2023-05-07T17:17:57.457Z,100384.81
2023-05-07T17:20:25.190Z,100384.91
2023-05-07T17:22:51.775Z,100389.34
2023-05-07T17:25:18.905Z,100383.53
2023-05-07T17:27:45.601Z,100384.63
2023-05-07T17:30:13.093Z,100395.44
2023-05-07T17:32:40.282Z,100392.91
2023-05-07T17:35:07.419Z,100389.94
2023-05-07T17:37:34.308Z,100396.84
2023-05-07T17:40:01.799Z,100392.31
2023-05-07T17:42:28.421Z,100398.66
2023-05-07T17:44:55.863Z,100401.31
2023-05-07T17:47:22.494Z,100399.16
2023-05-07T17:49:49.153Z,100409.28
2023-05-07T17:52:15.768Z,100410.66
2023-05-07T17:54:42.483Z,100410.66
2023-05-07T17:57:09.027Z,100414.44
2023-05-07T17:59:35.721Z,100414.19
2023-05-07T18:02:02.287Z,100412.16
2023-05-07T18:04:29.072Z,100413.47
2023-05-07T18:06:57.329Z,100417.59
2023-05-07T18:09:23.976Z,100421.03
2023-05-07T18:11:50.530Z,100424.81
2023-05-07T18:14:17.243Z,100429.03
2023-05-07T18:16:43.836Z,100431.38
2023-05-07T18:19:10.580Z,100437.44
2023-05-07T18:21:37.182Z,100443.31
2023-05-07T18:24:03.887Z,100441.59
2023-05-07T18:26:30.564Z,100442.47
2023-05-07T18:28:57.229Z,100452.91
2023-05-07T18:31:24.017Z,100452.00
2023-05-07T18:33:56.039Z,100462.69
2023-05-07T18:36:25.023Z,100462.94
2023-05-07T18:38:52.545Z,100467.41
2023-05-07T18:41:19.215Z,100468.50
2023-05-07T18:43:46.003Z,100482.19
2023-05-07T18:46:12.615Z,100489.41
2023-05-07T18:48:39.401Z,100483.91
2023-05-07T18:51:06.248Z,100480.50
2023-05-07T18:53:32.876Z,100487.00
2023-05-07T18:56:00.837Z,100484.19
2023-05-07T18:58:27.603Z,100489.53
2023-05-07T19:00:54.336Z,100499.94
2023-05-07T19:03:20.926Z,100504.34
2023-05-07T19:05:47.501Z,100516.06
2023-05-07T19:08:14.175Z,100528.66
2023-05-07T19:10:40.985Z,100534.81
2023-05-07T19:13:07.647Z,100549.09
2023-05-07T19:15:34.424Z,100552.19
2023-05-07T19:18:01.522Z,100563.72
2023-05-07T19:20:28.875Z,100573.91
2023-05-07T19:22:55.740Z,100588.84
2023-05-07T19:25:22.481Z,100595.81
2023-05-07T19:27:50.871Z,100608.72
2023-05-07T19:30:17.990Z,100613.66
2023-05-07T19:32:44.855Z,100618.06
2023-05-07T19:35:11.716Z,100614.69
2023-05-07T19:37:39.359Z,100620.47
2023-05-07T19:40:07.125Z,100629.13
2023-05-07T19:42:33.785Z,100627.06
2023-05-07T19:45:00.682Z,100642.19
2023-05-07T19:47:27.600Z,100641.50
2023-05-07T19:49:54.208Z,100653.19
2023-05-07T19:52:20.834Z,100653.97
2023-05-07T19:54:47.716Z,100646.16
2023-05-07T19:57:15.418Z,100659.38
2023-05-07T19:59:42.017Z,100664.09
2023-05-07T20:02:08.699Z,100670.53
2023-05-07T20:04:38.127Z,100666.72
2023-05-07T20:07:05.808Z,100681.94
2023-05-07T20:09:32.615Z,100677.88
2023-05-07T20:11:59.346Z,100691.66
2023-05-07T20:14:27.065Z,100687.66
2023-05-07T20:16:53.842Z,100702.97
2023-05-07T20:19:20.701Z,100701.66
2023-05-07T20:21:47.309Z,100702.97
2023-05-07T20:24:14.010Z,100709.47
2023-05-07T20:26:41.279Z,100709.56
2023-05-07T20:29:08.055Z,100704.13
2023-05-07T20:31:35.379Z,100714.00
2023-05-07T20:34:02.494Z,100715.47
2023-05-07T20:36:29.284Z,100706.81
2023-05-07T20:38:56.270Z,100707.56
2023-05-07T20:41:25.471Z,100715.59
2023-05-07T20:43:52.484Z,100705.06
2023-05-07T20:46:22.421Z,100704.50
2023-05-07T20:48:49.802Z,100704.09
2023-05-07T20:51:16.553Z,100710.84
2023-05-07T20:53:47.686Z,100715.44
2023-05-07T20:56:15.052Z,100715.41
2023-05-07T20:58:41.861Z,100715.91
2023-05-07T21:01:08.567Z,100731.41
2023-05-07T21:03:35.360Z,100726.22
2023-05-07T21:06:01.971Z,100725.34
2023-05-07T21:08:28.560Z,100733.88
2023-05-07T21:10:55.446Z,100736.84
2023-05-07T21:13:23.064Z,100735.72
2023-05-07T21:15:49.882Z,100748.13
2023-05-07T21:18:16.639Z,100749.28
2023-05-07T21:20:43.210Z,100754.94
2023-05-07T21:23:09.823Z,100744.00
2023-05-07T21:25:40.927Z,100756.66
2023-05-07T21:28:10.457Z,100750.50
2023-05-07T21:30:37.327Z,100757.47
2023-05-07T21:33:06.972Z,100755.19
2023-05-07T21:35:36.326Z,100759.31
2023-05-07T21:38:03.412Z,100758.03
2023-05-07T21:40:30.213Z,100753.19
2023-05-07T21:42:56.745Z,100755.88
2023-05-07T21:45:23.348Z,100752.31
2023-05-07T21:47:50.055Z,100757.31
2023-05-07T21:50:17.012Z,100758.56
2023-05-07T21:52:43.715Z,100768.47
2023-05-07T21:55:10.834Z,100767.03
2023-05-07T21:57:37.845Z,100767.16
2023-05-07T22:00:04.895Z,100764.03
2023-05-07T22:02:31.909Z,100769.97
2023-05-07T22:04:58.569Z,100769.09
2023-05-07T22:07:25.166Z,100769.53
2023-05-07T22:09:51.995Z,100765.78
2023-05-07T22:12:18.544Z,100771.53
2023-05-07T22:14:45.185Z,100776.03
2023-05-07T22:17:11.743Z,100764.75
2023-05-07T22:19:38.521Z,100773.97
2023-05-07T22:22:05.098Z,100772.25
2023-05-07T22:24:31.760Z,100767.25
2023-05-07T22:26:58.343Z,100772.84
2023-05-07T22:29:25.090Z,100791.25
2023-05-07T22:31:51.933Z,100780.13
2023-05-07T22:34:18.614Z,100782.47
2023-05-07T22:36:45.307Z,100786.44
2023-05-07T22:39:12.196Z,100777.75
2023-05-07T22:41:39.126Z,100784.50
2023-05-07T22:44:06.546Z,100781.09
2023-05-07T22:46:33.304Z,100788.69
2023-05-07T22:49:00.028Z,100786.59
2023-05-07T22:51:27.432Z,100784.41
2023-05-07T22:53:54.042Z,100790.91
2023-05-07T22:56:20.684Z,100793.38
2023-05-07T22:58:47.277Z,100793.22
2023-05-07T23:01:15.631Z,100793.88
2023-05-07T23:03:42.419Z,100793.25
2023-05-07T23:06:09.180Z,100799.63
2023-05-07T23:08:36.580Z,100803.44
2023-05-07T23:11:03.272Z,100809.09
2023-05-07T23:13:30.046Z,100819.38
2023-05-07T23:15:58.778Z,100813.59
2023-05-07T23:18:28.323Z,100813.59
2023-05-07T23:20:55.001Z,100810.81
2023-05-07T23:23:22.106Z,100813.59
2023-05-07T23:25:51.901Z,100805.78
2023-05-07T23:28:18.589Z,100800.41
2023-05-07T23:30:45.206Z,100799.31
2023-05-07T23:33:12.041Z,100803.44
2023-05-07T23:35:39.833Z,100807.88
2023-05-07T23:38:06.376Z,100803.22
2023-05-07T23:40:33.038Z,100801.03
2023-05-07T23:42:59.771Z,100797.38
2023-05-07T23:45:26.436Z,100798.22
2023-05-07T23:47:53.072Z,100803.59
2023-05-07T23:50:19.698Z,100797.38
2023-05-07T23:52:46.260Z,100800.44
2023-05-07T23:55:13.845Z,100803.03
2023-05-07T23:57:40.408Z,100801.06
